sensor_id;sensor_type;location;lat;lon;timestamp;P1;durP1;ratioP1;P2;durP2;ratioP2
30398;SDS011;17195;50.838;7.214;2022-08-01T00:01:08;2.28;;;0.93;;
30398;SDS011;17195;50.838;7.214;2022-08-01T00:03:36;1.25;;;0.95;;
30398;SDS011;17195;50.838;7.214;2022-08-01T00:06:02;1.77;;;0.90;;
30398;SDS011;17195;50.838;7.214;2022-08-01T00:08:27;1.40;;;1.00;;
30398;SDS011;17195;50.838;7.214;2022-08-01T00:10:53;3.53;;;1.30;;
30398;SDS011;17195;50.838;7.214;2022-08-01T00:13:18;1.88;;;1.05;;
30398;SDS011;17195;50.838;7.214;2022-08-01T00:15:44;2.25;;;0.80;;
30398;SDS011;17195;50.838;7.214;2022-08-01T00:18:09;3.63;;;1.33;;
30398;SDS011;17195;50.838;7.214;2022-08-01T00:20:35;3.13;;;1.20;;
30398;SDS011;17195;50.838;7.214;2022-08-01T00:23:02;3.55;;;1.25;;
30398;SDS011;17195;50.838;7.214;2022-08-01T00:25:28;1.30;;;1.13;;
30398;SDS011;17195;50.838;7.214;2022-08-01T00:27:53;2.15;;;1.00;;
30398;SDS011;17195;50.838;7.214;2022-08-01T00:30:19;2.67;;;1.00;;
30398;SDS011;17195;50.838;7.214;2022-08-01T00:32:44;3.40;;;0.88;;
30398;SDS011;17195;50.838;7.214;2022-08-01T00:35:10;1.67;;;0.82;;
30398;SDS011;17195;50.838;7.214;2022-08-01T00:37:36;1.92;;;1.23;;
30398;SDS011;17195;50.838;7.214;2022-08-01T00:40:02;2.55;;;1.10;;
30398;SDS011;17195;50.838;7.214;2022-08-01T00:42:28;2.38;;;0.88;;
30398;SDS011;17195;50.838;7.214;2022-08-01T00:44:53;4.65;;;1.30;;
30398;SDS011;17195;50.838;7.214;2022-08-01T00:47:19;2.13;;;1.13;;
30398;SDS011;17195;50.838;7.214;2022-08-01T00:49:45;4.05;;;1.05;;
30398;SDS011;17195;50.838;7.214;2022-08-01T00:52:10;1.55;;;1.10;;
30398;SDS011;17195;50.838;7.214;2022-08-01T00:54:36;1.80;;;1.10;;
30398;SDS011;17195;50.838;7.214;2022-08-01T00:57:02;1.95;;;1.35;;
30398;SDS011;17195;50.838;7.214;2022-08-01T00:59:28;2.55;;;1.10;;
30398;SDS011;17195;50.838;7.214;2022-08-01T01:01:54;1.52;;;0.85;;
30398;SDS011;17195;50.838;7.214;2022-08-01T01:04:19;3.35;;;1.20;;
30398;SDS011;17195;50.838;7.214;2022-08-01T01:06:52;2.22;;;1.20;;
30398;SDS011;17195;50.838;7.214;2022-08-01T01:09:39;3.28;;;1.40;;
30398;SDS011;17195;50.838;7.214;2022-08-01T01:12:44;4.78;;;1.30;;
30398;SDS011;17195;50.838;7.214;2022-08-01T01:17:57;2.85;;;1.33;;
30398;SDS011;17195;50.838;7.214;2022-08-01T01:20:30;4.75;;;1.27;;
30398;SDS011;17195;50.838;7.214;2022-08-01T01:23:11;1.88;;;1.30;;
30398;SDS011;17195;50.838;7.214;2022-08-01T01:26:04;2.10;;;1.23;;
30398;SDS011;17195;50.838;7.214;2022-08-01T01:31:25;1.88;;;1.38;;
30398;SDS011;17195;50.838;7.214;2022-08-01T01:33:53;2.30;;;1.23;;
30398;SDS011;17195;50.838;7.214;2022-08-01T01:36:21;3.58;;;1.50;;
30398;SDS011;17195;50.838;7.214;2022-08-01T01:38:50;4.93;;;1.38;;
30398;SDS011;17195;50.838;7.214;2022-08-01T01:41:17;3.97;;;1.73;;
30398;SDS011;17195;50.838;7.214;2022-08-01T01:43:43;3.33;;;1.65;;
30398;SDS011;17195;50.838;7.214;2022-08-01T01:46:11;3.00;;;1.90;;
30398;SDS011;17195;50.838;7.214;2022-08-01T01:48:40;3.90;;;1.65;;
30398;SDS011;17195;50.838;7.214;2022-08-01T01:51:09;3.22;;;2.00;;
30398;SDS011;17195;50.838;7.214;2022-08-01T01:53:36;2.10;;;1.75;;
30398;SDS011;17195;50.838;7.214;2022-08-01T01:56:03;1.92;;;1.50;;
30398;SDS011;17195;50.838;7.214;2022-08-01T01:58:30;1.65;;;1.55;;
30398;SDS011;17195;50.838;7.214;2022-08-01T02:00:58;6.15;;;1.88;;
30398;SDS011;17195;50.838;7.214;2022-08-01T02:03:26;5.45;;;2.53;;
30398;SDS011;17195;50.838;7.214;2022-08-01T02:05:53;2.35;;;1.80;;
30398;SDS011;17195;50.838;7.214;2022-08-01T02:08:20;4.43;;;2.28;;
30398;SDS011;17195;50.838;7.214;2022-08-01T02:10:48;4.82;;;2.97;;
30398;SDS011;17195;50.838;7.214;2022-08-01T02:13:36;3.30;;;2.63;;
30398;SDS011;17195;50.838;7.214;2022-08-01T02:16:03;4.28;;;2.60;;
30398;SDS011;17195;50.838;7.214;2022-08-01T02:18:30;3.78;;;2.63;;
30398;SDS011;17195;50.838;7.214;2022-08-01T02:20:57;4.88;;;3.08;;
30398;SDS011;17195;50.838;7.214;2022-08-01T02:23:25;5.50;;;2.67;;
30398;SDS011;17195;50.838;7.214;2022-08-01T02:25:57;4.28;;;2.70;;
30398;SDS011;17195;50.838;7.214;2022-08-01T02:28:27;4.82;;;2.88;;
30398;SDS011;17195;50.838;7.214;2022-08-01T02:30:56;4.53;;;2.78;;
30398;SDS011;17195;50.838;7.214;2022-08-01T02:33:41;3.22;;;2.85;;
30398;SDS011;17195;50.838;7.214;2022-08-01T02:36:10;4.25;;;2.63;;
30398;SDS011;17195;50.838;7.214;2022-08-01T02:38:39;6.55;;;2.70;;
30398;SDS011;17195;50.838;7.214;2022-08-01T02:41:11;3.58;;;2.92;;
30398;SDS011;17195;50.838;7.214;2022-08-01T02:43:42;3.38;;;2.78;;
30398;SDS011;17195;50.838;7.214;2022-08-01T02:46:14;3.33;;;2.50;;
30398;SDS011;17195;50.838;7.214;2022-08-01T02:48:44;3.53;;;2.85;;
30398;SDS011;17195;50.838;7.214;2022-08-01T02:51:10;4.63;;;2.53;;
30398;SDS011;17195;50.838;7.214;2022-08-01T02:53:37;3.65;;;2.38;;
30398;SDS011;17195;50.838;7.214;2022-08-01T02:56:06;3.92;;;2.67;;
30398;SDS011;17195;50.838;7.214;2022-08-01T02:58:33;3.72;;;2.53;;
30398;SDS011;17195;50.838;7.214;2022-08-01T03:01:01;6.32;;;2.78;;
30398;SDS011;17195;50.838;7.214;2022-08-01T03:03:27;3.35;;;2.50;;
30398;SDS011;17195;50.838;7.214;2022-08-01T03:05:54;6.13;;;2.60;;
30398;SDS011;17195;50.838;7.214;2022-08-01T03:08:21;5.63;;;2.38;;
30398;SDS011;17195;50.838;7.214;2022-08-01T03:10:48;4.32;;;2.75;;
30398;SDS011;17195;50.838;7.214;2022-08-01T03:13:17;4.35;;;3.10;;
30398;SDS011;17195;50.838;7.214;2022-08-01T03:15:44;4.65;;;2.47;;
30398;SDS011;17195;50.838;7.214;2022-08-01T03:18:11;3.67;;;2.60;;
30398;SDS011;17195;50.838;7.214;2022-08-01T03:20:38;4.63;;;2.90;;
30398;SDS011;17195;50.838;7.214;2022-08-01T03:23:07;4.13;;;3.08;;
30398;SDS011;17195;50.838;7.214;2022-08-01T03:25:35;3.85;;;2.85;;
30398;SDS011;17195;50.838;7.214;2022-08-01T03:28:04;10.40;;;3.90;;
30398;SDS011;17195;50.838;7.214;2022-08-01T03:30:32;8.13;;;3.42;;
30398;SDS011;17195;50.838;7.214;2022-08-01T03:33:00;5.47;;;3.40;;
30398;SDS011;17195;50.838;7.214;2022-08-01T03:35:29;7.20;;;3.67;;
30398;SDS011;17195;50.838;7.214;2022-08-01T03:37:58;6.40;;;3.28;;
30398;SDS011;17195;50.838;7.214;2022-08-01T03:40:28;7.13;;;3.30;;
30398;SDS011;17195;50.838;7.214;2022-08-01T03:43:02;7.25;;;4.13;;
30398;SDS011;17195;50.838;7.214;2022-08-01T03:45:34;9.45;;;4.32;;
30398;SDS011;17195;50.838;7.214;2022-08-01T03:48:03;7.40;;;4.45;;
30398;SDS011;17195;50.838;7.214;2022-08-01T03:50:33;8.60;;;4.55;;
30398;SDS011;17195;50.838;7.214;2022-08-01T03:53:02;8.25;;;4.70;;
30398;SDS011;17195;50.838;7.214;2022-08-01T03:55:31;6.45;;;4.03;;
30398;SDS011;17195;50.838;7.214;2022-08-01T03:57:57;6.05;;;4.07;;
30398;SDS011;17195;50.838;7.214;2022-08-01T04:00:25;6.40;;;4.20;;
30398;SDS011;17195;50.838;7.214;2022-08-01T04:02:52;6.05;;;4.38;;
30398;SDS011;17195;50.838;7.214;2022-08-01T04:05:18;7.68;;;4.70;;
30398;SDS011;17195;50.838;7.214;2022-08-01T04:07:48;7.25;;;4.38;;
30398;SDS011;17195;50.838;7.214;2022-08-01T04:10:21;8.40;;;5.38;;
30398;SDS011;17195;50.838;7.214;2022-08-01T04:12:48;12.15;;;4.68;;
30398;SDS011;17195;50.838;7.214;2022-08-01T04:15:14;9.85;;;4.90;;
30398;SDS011;17195;50.838;7.214;2022-08-01T04:17:40;8.43;;;4.93;;
30398;SDS011;17195;50.838;7.214;2022-08-01T04:20:06;10.18;;;4.93;;
30398;SDS011;17195;50.838;7.214;2022-08-01T04:22:32;8.57;;;4.82;;
30398;SDS011;17195;50.838;7.214;2022-08-01T04:24:58;11.43;;;5.13;;
30398;SDS011;17195;50.838;7.214;2022-08-01T04:27:28;5.53;;;4.43;;
30398;SDS011;17195;50.838;7.214;2022-08-01T04:29:58;8.23;;;4.80;;
30398;SDS011;17195;50.838;7.214;2022-08-01T04:32:25;5.18;;;4.50;;
30398;SDS011;17195;50.838;7.214;2022-08-01T04:34:55;11.07;;;4.65;;
30398;SDS011;17195;50.838;7.214;2022-08-01T04:37:24;8.52;;;4.88;;
30398;SDS011;17195;50.838;7.214;2022-08-01T04:39:52;13.85;;;5.18;;
30398;SDS011;17195;50.838;7.214;2022-08-01T04:42:19;6.18;;;4.50;;
30398;SDS011;17195;50.838;7.214;2022-08-01T04:44:45;6.57;;;4.72;;
30398;SDS011;17195;50.838;7.214;2022-08-01T04:47:11;6.60;;;4.07;;
30398;SDS011;17195;50.838;7.214;2022-08-01T04:49:37;6.75;;;4.70;;
30398;SDS011;17195;50.838;7.214;2022-08-01T04:52:04;5.57;;;3.90;;
30398;SDS011;17195;50.838;7.214;2022-08-01T04:54:31;6.55;;;4.30;;
30398;SDS011;17195;50.838;7.214;2022-08-01T04:57:01;7.20;;;4.80;;
30398;SDS011;17195;50.838;7.214;2022-08-01T04:59:28;7.35;;;4.70;;
30398;SDS011;17195;50.838;7.214;2022-08-01T05:02:04;7.00;;;4.25;;
30398;SDS011;17195;50.838;7.214;2022-08-01T05:04:30;8.45;;;4.10;;
30398;SDS011;17195;50.838;7.214;2022-08-01T05:06:55;6.40;;;4.47;;
30398;SDS011;17195;50.838;7.214;2022-08-01T05:09:21;7.00;;;4.63;;
30398;SDS011;17195;50.838;7.214;2022-08-01T05:11:47;9.18;;;4.82;;
30398;SDS011;17195;50.838;7.214;2022-08-01T05:14:12;6.55;;;4.10;;
30398;SDS011;17195;50.838;7.214;2022-08-01T05:16:38;6.80;;;4.72;;
30398;SDS011;17195;50.838;7.214;2022-08-01T05:19:03;5.43;;;4.93;;
30398;SDS011;17195;50.838;7.214;2022-08-01T05:21:29;9.75;;;4.75;;
30398;SDS011;17195;50.838;7.214;2022-08-01T05:23:54;7.53;;;4.68;;
30398;SDS011;17195;50.838;7.214;2022-08-01T05:26:20;5.85;;;4.72;;
30398;SDS011;17195;50.838;7.214;2022-08-01T05:28:45;7.75;;;5.65;;
30398;SDS011;17195;50.838;7.214;2022-08-01T05:31:11;6.07;;;5.25;;
30398;SDS011;17195;50.838;7.214;2022-08-01T05:33:36;6.72;;;5.05;;
30398;SDS011;17195;50.838;7.214;2022-08-01T05:36:02;8.25;;;5.57;;
30398;SDS011;17195;50.838;7.214;2022-08-01T05:38:28;5.68;;;5.07;;
30398;SDS011;17195;50.838;7.214;2022-08-01T05:40:53;8.55;;;6.00;;
30398;SDS011;17195;50.838;7.214;2022-08-01T05:43:19;8.10;;;6.20;;
30398;SDS011;17195;50.838;7.214;2022-08-01T05:45:44;7.53;;;6.32;;
30398;SDS011;17195;50.838;7.214;2022-08-01T05:48:10;10.77;;;6.32;;
30398;SDS011;17195;50.838;7.214;2022-08-01T05:50:36;8.70;;;7.07;;
30398;SDS011;17195;50.838;7.214;2022-08-01T05:53:02;8.55;;;6.53;;
30398;SDS011;17195;50.838;7.214;2022-08-01T05:55:27;9.73;;;6.50;;
30398;SDS011;17195;50.838;7.214;2022-08-01T05:57:53;8.32;;;6.40;;
30398;SDS011;17195;50.838;7.214;2022-08-01T06:00:18;9.05;;;5.70;;
30398;SDS011;17195;50.838;7.214;2022-08-01T06:02:44;8.35;;;6.47;;
30398;SDS011;17195;50.838;7.214;2022-08-01T06:05:10;9.27;;;7.32;;
30398;SDS011;17195;50.838;7.214;2022-08-01T06:07:36;11.10;;;7.32;;
30398;SDS011;17195;50.838;7.214;2022-08-01T06:10:03;9.88;;;7.07;;
30398;SDS011;17195;50.838;7.214;2022-08-01T06:12:32;10.13;;;7.00;;
30398;SDS011;17195;50.838;7.214;2022-08-01T06:14:58;8.77;;;7.03;;
30398;SDS011;17195;50.838;7.214;2022-08-01T06:17:23;12.82;;;7.03;;
30398;SDS011;17195;50.838;7.214;2022-08-01T06:19:49;8.60;;;7.53;;
30398;SDS011;17195;50.838;7.214;2022-08-01T06:22:14;12.35;;;8.45;;
30398;SDS011;17195;50.838;7.214;2022-08-01T06:24:40;14.55;;;8.50;;
30398;SDS011;17195;50.838;7.214;2022-08-01T06:27:06;11.57;;;7.88;;
30398;SDS011;17195;50.838;7.214;2022-08-01T06:29:31;11.05;;;8.35;;
30398;SDS011;17195;50.838;7.214;2022-08-01T06:31:57;11.05;;;8.13;;
30398;SDS011;17195;50.838;7.214;2022-08-01T06:34:23;13.98;;;9.60;;
30398;SDS011;17195;50.838;7.214;2022-08-01T06:36:48;12.48;;;9.05;;
30398;SDS011;17195;50.838;7.214;2022-08-01T06:39:14;11.13;;;7.97;;
30398;SDS011;17195;50.838;7.214;2022-08-01T06:41:39;12.80;;;9.00;;
30398;SDS011;17195;50.838;7.214;2022-08-01T06:44:06;13.00;;;9.02;;
30398;SDS011;17195;50.838;7.214;2022-08-01T06:46:32;16.73;;;9.73;;
30398;SDS011;17195;50.838;7.214;2022-08-01T06:48:58;12.05;;;10.15;;
30398;SDS011;17195;50.838;7.214;2022-08-01T06:51:23;12.05;;;9.57;;
30398;SDS011;17195;50.838;7.214;2022-08-01T06:53:49;13.30;;;10.25;;
30398;SDS011;17195;50.838;7.214;2022-08-01T06:56:14;11.40;;;9.00;;
30398;SDS011;17195;50.838;7.214;2022-08-01T06:58:40;10.00;;;7.43;;
30398;SDS011;17195;50.838;7.214;2022-08-01T07:01:06;10.85;;;8.80;;
30398;SDS011;17195;50.838;7.214;2022-08-01T07:03:32;12.20;;;9.23;;
30398;SDS011;17195;50.838;7.214;2022-08-01T07:05:58;14.07;;;8.05;;
30398;SDS011;17195;50.838;7.214;2022-08-01T07:08:24;9.52;;;7.20;;
30398;SDS011;17195;50.838;7.214;2022-08-01T07:10:49;10.75;;;7.30;;
30398;SDS011;17195;50.838;7.214;2022-08-01T07:13:15;9.25;;;7.07;;
30398;SDS011;17195;50.838;7.214;2022-08-01T07:15:45;7.75;;;6.88;;
30398;SDS011;17195;50.838;7.214;2022-08-01T07:18:11;10.05;;;7.22;;
30398;SDS011;17195;50.838;7.214;2022-08-01T07:20:37;10.10;;;6.82;;
30398;SDS011;17195;50.838;7.214;2022-08-01T07:23:03;8.15;;;7.32;;
30398;SDS011;17195;50.838;7.214;2022-08-01T07:25:28;9.63;;;7.18;;
30398;SDS011;17195;50.838;7.214;2022-08-01T07:27:54;10.90;;;7.30;;
30398;SDS011;17195;50.838;7.214;2022-08-01T07:30:20;10.20;;;7.60;;
30398;SDS011;17195;50.838;7.214;2022-08-01T07:32:46;9.30;;;5.85;;
30398;SDS011;17195;50.838;7.214;2022-08-01T07:35:12;9.55;;;6.43;;
30398;SDS011;17195;50.838;7.214;2022-08-01T07:37:37;7.25;;;6.55;;
30398;SDS011;17195;50.838;7.214;2022-08-01T07:40:03;6.65;;;5.68;;
30398;SDS011;17195;50.838;7.214;2022-08-01T07:42:30;6.82;;;5.80;;
30398;SDS011;17195;50.838;7.214;2022-08-01T07:44:56;7.93;;;6.95;;
30398;SDS011;17195;50.838;7.214;2022-08-01T07:47:25;9.82;;;6.25;;
30398;SDS011;17195;50.838;7.214;2022-08-01T07:49:51;7.13;;;6.10;;
30398;SDS011;17195;50.838;7.214;2022-08-01T07:52:17;9.07;;;6.10;;
30398;SDS011;17195;50.838;7.214;2022-08-01T07:54:43;8.40;;;6.75;;
30398;SDS011;17195;50.838;7.214;2022-08-01T07:57:08;7.82;;;6.63;;
30398;SDS011;17195;50.838;7.214;2022-08-01T07:59:34;7.88;;;6.88;;
30398;SDS011;17195;50.838;7.214;2022-08-01T08:02:00;9.65;;;7.03;;
30398;SDS011;17195;50.838;7.214;2022-08-01T08:04:26;9.32;;;6.15;;
30398;SDS011;17195;50.838;7.214;2022-08-01T08:06:52;6.90;;;5.72;;
30398;SDS011;17195;50.838;7.214;2022-08-01T08:09:18;7.63;;;6.68;;
30398;SDS011;17195;50.838;7.214;2022-08-01T08:11:44;11.82;;;6.53;;
30398;SDS011;17195;50.838;7.214;2022-08-01T08:14:10;6.72;;;6.10;;
30398;SDS011;17195;50.838;7.214;2022-08-01T08:16:36;8.48;;;6.45;;
30398;SDS011;17195;50.838;7.214;2022-08-01T08:19:02;7.70;;;6.50;;
30398;SDS011;17195;50.838;7.214;2022-08-01T08:21:28;6.60;;;5.90;;
30398;SDS011;17195;50.838;7.214;2022-08-01T08:23:55;7.13;;;5.65;;
30398;SDS011;17195;50.838;7.214;2022-08-01T08:26:39;8.30;;;5.25;;
30398;SDS011;17195;50.838;7.214;2022-08-01T08:29:05;6.40;;;4.88;;
30398;SDS011;17195;50.838;7.214;2022-08-01T08:31:31;7.20;;;6.10;;
30398;SDS011;17195;50.838;7.214;2022-08-01T08:33:57;6.50;;;5.80;;
30398;SDS011;17195;50.838;7.214;2022-08-01T08:36:23;5.45;;;4.45;;
30398;SDS011;17195;50.838;7.214;2022-08-01T08:38:48;7.95;;;5.82;;
30398;SDS011;17195;50.838;7.214;2022-08-01T08:41:15;4.57;;;4.18;;
30398;SDS011;17195;50.838;7.214;2022-08-01T08:43:40;6.90;;;4.80;;
30398;SDS011;17195;50.838;7.214;2022-08-01T08:46:06;8.23;;;4.90;;
30398;SDS011;17195;50.838;7.214;2022-08-01T08:48:33;7.22;;;4.80;;
30398;SDS011;17195;50.838;7.214;2022-08-01T08:51:00;5.32;;;4.50;;
30398;SDS011;17195;50.838;7.214;2022-08-01T08:53:26;5.38;;;4.50;;
30398;SDS011;17195;50.838;7.214;2022-08-01T08:55:52;5.47;;;4.95;;
30398;SDS011;17195;50.838;7.214;2022-08-01T08:58:20;6.05;;;4.93;;
30398;SDS011;17195;50.838;7.214;2022-08-01T09:00:46;5.38;;;4.50;;
30398;SDS011;17195;50.838;7.214;2022-08-01T09:03:12;6.93;;;4.90;;
30398;SDS011;17195;50.838;7.214;2022-08-01T09:05:38;7.88;;;4.90;;
30398;SDS011;17195;50.838;7.214;2022-08-01T09:08:07;5.80;;;5.22;;
30398;SDS011;17195;50.838;7.214;2022-08-01T09:10:33;4.63;;;4.20;;
30398;SDS011;17195;50.838;7.214;2022-08-01T09:13:09;6.13;;;4.82;;
30398;SDS011;17195;50.838;7.214;2022-08-01T09:21:08;6.35;;;5.32;;
30398;SDS011;17195;50.838;7.214;2022-08-01T09:23:38;6.65;;;5.20;;
30398;SDS011;17195;50.838;7.214;2022-08-01T09:26:07;5.53;;;5.03;;
30398;SDS011;17195;50.838;7.214;2022-08-01T09:28:37;5.22;;;4.65;;
30398;SDS011;17195;50.838;7.214;2022-08-01T09:31:10;5.30;;;4.80;;
30398;SDS011;17195;50.838;7.214;2022-08-01T09:33:54;7.00;;;5.70;;
30398;SDS011;17195;50.838;7.214;2022-08-01T09:36:24;8.07;;;6.07;;
30398;SDS011;17195;50.838;7.214;2022-08-01T09:38:53;6.95;;;6.20;;
30398;SDS011;17195;50.838;7.214;2022-08-01T09:41:29;6.25;;;5.65;;
30398;SDS011;17195;50.838;7.214;2022-08-01T09:43:56;8.32;;;5.93;;
30398;SDS011;17195;50.838;7.214;2022-08-01T09:46:22;6.05;;;5.55;;
30398;SDS011;17195;50.838;7.214;2022-08-01T09:51:34;6.80;;;5.40;;
30398;SDS011;17195;50.838;7.214;2022-08-01T09:54:02;6.40;;;5.38;;
30398;SDS011;17195;50.838;7.214;2022-08-01T09:56:35;6.05;;;4.40;;
30398;SDS011;17195;50.838;7.214;2022-08-01T09:59:05;6.72;;;5.43;;
30398;SDS011;17195;50.838;7.214;2022-08-01T10:01:52;6.53;;;5.60;;
30398;SDS011;17195;50.838;7.214;2022-08-01T10:04:18;9.10;;;5.97;;
30398;SDS011;17195;50.838;7.214;2022-08-01T10:06:46;5.65;;;5.15;;
30398;SDS011;17195;50.838;7.214;2022-08-01T10:09:25;6.53;;;4.68;;
30398;SDS011;17195;50.838;7.214;2022-08-01T10:11:52;5.85;;;4.57;;
30398;SDS011;17195;50.838;7.214;2022-08-01T10:14:20;6.20;;;5.00;;
30398;SDS011;17195;50.838;7.214;2022-08-01T10:16:47;5.47;;;5.05;;
30398;SDS011;17195;50.838;7.214;2022-08-01T10:19:14;4.70;;;4.25;;
30398;SDS011;17195;50.838;7.214;2022-08-01T10:21:40;5.03;;;4.20;;
30398;SDS011;17195;50.838;7.214;2022-08-01T10:24:06;6.78;;;4.57;;
30398;SDS011;17195;50.838;7.214;2022-08-01T10:26:35;5.07;;;4.50;;
30398;SDS011;17195;50.838;7.214;2022-08-01T10:29:03;6.32;;;4.47;;
30398;SDS011;17195;50.838;7.214;2022-08-01T10:31:30;4.20;;;3.78;;
30398;SDS011;17195;50.838;7.214;2022-08-01T10:33:58;6.93;;;3.80;;
30398;SDS011;17195;50.838;7.214;2022-08-01T10:36:25;6.50;;;3.58;;
30398;SDS011;17195;50.838;7.214;2022-08-01T10:38:51;4.57;;;4.18;;
30398;SDS011;17195;50.838;7.214;2022-08-01T10:41:18;5.05;;;4.05;;
30398;SDS011;17195;50.838;7.214;2022-08-01T10:43:45;5.15;;;4.30;;
30398;SDS011;17195;50.838;7.214;2022-08-01T10:46:10;4.50;;;4.13;;
30398;SDS011;17195;50.838;7.214;2022-08-01T10:51:27;4.45;;;3.63;;
30398;SDS011;17195;50.838;7.214;2022-08-01T10:53:53;3.70;;;3.40;;
30398;SDS011;17195;50.838;7.214;2022-08-01T10:56:19;4.03;;;3.60;;
30398;SDS011;17195;50.838;7.214;2022-08-01T10:58:47;4.57;;;4.18;;
30398;SDS011;17195;50.838;7.214;2022-08-01T11:11:56;4.55;;;3.30;;
30398;SDS011;17195;50.838;7.214;2022-08-01T11:14:24;3.92;;;3.45;;
30398;SDS011;17195;50.838;7.214;2022-08-01T11:16:49;4.22;;;3.83;;
30398;SDS011;17195;50.838;7.214;2022-08-01T11:19:15;3.88;;;2.92;;
30398;SDS011;17195;50.838;7.214;2022-08-01T11:35:13;2.90;;;2.70;;
30398;SDS011;17195;50.838;7.214;2022-08-01T11:37:39;3.50;;;2.80;;
30398;SDS011;17195;50.838;7.214;2022-08-01T11:42:39;3.63;;;3.23;;
30398;SDS011;17195;50.838;7.214;2022-08-01T11:45:05;3.42;;;3.13;;
30398;SDS011;17195;50.838;7.214;2022-08-01T11:47:44;3.45;;;3.17;;
30398;SDS011;17195;50.838;7.214;2022-08-01T11:50:30;6.00;;;3.40;;
30398;SDS011;17195;50.838;7.214;2022-08-01T11:53:00;3.90;;;3.30;;
30398;SDS011;17195;50.838;7.214;2022-08-01T11:55:30;3.00;;;2.80;;
30398;SDS011;17195;50.838;7.214;2022-08-01T11:58:03;3.42;;;2.97;;
30398;SDS011;17195;50.838;7.214;2022-08-01T12:00:31;2.92;;;2.63;;
30398;SDS011;17195;50.838;7.214;2022-08-01T12:02:58;5.13;;;2.83;;
30398;SDS011;17195;50.838;7.214;2022-08-01T12:05:26;3.55;;;3.25;;
30398;SDS011;17195;50.838;7.214;2022-08-01T12:07:52;3.20;;;3.00;;
30398;SDS011;17195;50.838;7.214;2022-08-01T12:10:19;3.20;;;2.90;;
30398;SDS011;17195;50.838;7.214;2022-08-01T12:15:16;2.85;;;2.65;;
30398;SDS011;17195;50.838;7.214;2022-08-01T12:17:43;3.65;;;2.80;;
30398;SDS011;17195;50.838;7.214;2022-08-01T12:20:14;2.63;;;2.42;;
30398;SDS011;17195;50.838;7.214;2022-08-01T12:22:44;4.68;;;3.20;;
30398;SDS011;17195;50.838;7.214;2022-08-01T12:25:10;3.17;;;2.88;;
30398;SDS011;17195;50.838;7.214;2022-08-01T12:27:37;3.53;;;2.90;;
30398;SDS011;17195;50.838;7.214;2022-08-01T12:30:05;4.07;;;2.80;;
30398;SDS011;17195;50.838;7.214;2022-08-01T12:32:34;4.50;;;3.05;;
30398;SDS011;17195;50.838;7.214;2022-08-01T12:37:50;3.50;;;2.42;;
30398;SDS011;17195;50.838;7.214;2022-08-01T12:40:42;3.55;;;3.00;;
30398;SDS011;17195;50.838;7.214;2022-08-01T12:43:08;3.28;;;2.50;;
30398;SDS011;17195;50.838;7.214;2022-08-01T12:45:36;3.55;;;3.00;;
30398;SDS011;17195;50.838;7.214;2022-08-01T12:48:08;6.03;;;2.70;;
30398;SDS011;17195;50.838;7.214;2022-08-01T12:50:36;3.58;;;3.03;;
30398;SDS011;17195;50.838;7.214;2022-08-01T12:53:07;2.85;;;2.65;;
30398;SDS011;17195;50.838;7.214;2022-08-01T12:55:40;2.90;;;2.60;;
30398;SDS011;17195;50.838;7.214;2022-08-01T12:58:16;2.70;;;2.50;;
30398;SDS011;17195;50.838;7.214;2022-08-01T13:00:43;6.85;;;2.97;;
30398;SDS011;17195;50.838;7.214;2022-08-01T13:03:15;3.55;;;2.55;;
30398;SDS011;17195;50.838;7.214;2022-08-01T13:08:14;3.00;;;2.65;;
30398;SDS011;17195;50.838;7.214;2022-08-01T13:10:40;2.30;;;2.20;;
30398;SDS011;17195;50.838;7.214;2022-08-01T13:13:07;2.58;;;2.22;;
30398;SDS011;17195;50.838;7.214;2022-08-01T13:15:34;2.47;;;2.28;;
30398;SDS011;17195;50.838;7.214;2022-08-01T13:18:21;2.38;;;2.17;;
30398;SDS011;17195;50.838;7.214;2022-08-01T13:20:49;2.20;;;2.00;;
30398;SDS011;17195;50.838;7.214;2022-08-01T13:23:15;2.40;;;2.20;;
30398;SDS011;17195;50.838;7.214;2022-08-01T13:25:52;5.47;;;2.10;;
30398;SDS011;17195;50.838;7.214;2022-08-01T13:28:20;2.25;;;2.08;;
30398;SDS011;17195;50.838;7.214;2022-08-01T13:31:01;3.22;;;2.38;;
30398;SDS011;17195;50.838;7.214;2022-08-01T13:33:27;2.47;;;2.28;;
30398;SDS011;17195;50.838;7.214;2022-08-01T13:36:07;2.70;;;1.95;;
30398;SDS011;17195;50.838;7.214;2022-08-01T13:38:33;3.97;;;2.30;;
30398;SDS011;17195;50.838;7.214;2022-08-01T13:41:17;4.78;;;2.30;;
30398;SDS011;17195;50.838;7.214;2022-08-01T13:43:43;3.05;;;2.25;;
30398;SDS011;17195;50.838;7.214;2022-08-01T13:46:08;2.13;;;2.03;;
30398;SDS011;17195;50.838;7.214;2022-08-01T13:48:34;2.63;;;2.22;;
30398;SDS011;17195;50.838;7.214;2022-08-01T13:51:00;2.10;;;1.70;;
30398;SDS011;17195;50.838;7.214;2022-08-01T13:53:26;4.55;;;2.10;;
30398;SDS011;17195;50.838;7.214;2022-08-01T13:55:51;2.20;;;2.00;;
30398;SDS011;17195;50.838;7.214;2022-08-01T13:58:17;2.80;;;1.90;;
30398;SDS011;17195;50.838;7.214;2022-08-01T14:00:43;2.45;;;1.70;;
30398;SDS011;17195;50.838;7.214;2022-08-01T14:03:08;3.67;;;2.00;;
30398;SDS011;17195;50.838;7.214;2022-08-01T14:05:35;3.58;;;1.95;;
30398;SDS011;17195;50.838;7.214;2022-08-01T14:08:01;4.22;;;1.60;;
30398;SDS011;17195;50.838;7.214;2022-08-01T14:10:27;2.13;;;1.13;;
30398;SDS011;17195;50.838;7.214;2022-08-01T14:12:52;1.38;;;1.20;;
30398;SDS011;17195;50.838;7.214;2022-08-01T14:15:19;1.30;;;1.20;;
30398;SDS011;17195;50.838;7.214;2022-08-01T14:17:45;2.25;;;1.20;;
30398;SDS011;17195;50.838;7.214;2022-08-01T14:20:10;1.40;;;1.00;;
30398;SDS011;17195;50.838;7.214;2022-08-01T14:22:36;1.58;;;1.30;;
30398;SDS011;17195;50.838;7.214;2022-08-01T14:25:02;2.40;;;1.30;;
30398;SDS011;17195;50.838;7.214;2022-08-01T14:27:28;2.88;;;1.23;;
30398;SDS011;17195;50.838;7.214;2022-08-01T14:29:55;1.90;;;1.10;;
30398;SDS011;17195;50.838;7.214;2022-08-01T14:32:21;1.20;;;1.13;;
30398;SDS011;17195;50.838;7.214;2022-08-01T14:34:47;2.40;;;1.15;;
30398;SDS011;17195;50.838;7.214;2022-08-01T14:37:12;1.33;;;0.95;;
30398;SDS011;17195;50.838;7.214;2022-08-01T14:39:38;1.27;;;1.08;;
30398;SDS011;17195;50.838;7.214;2022-08-01T14:42:03;2.00;;;1.10;;
30398;SDS011;17195;50.838;7.214;2022-08-01T14:44:29;2.10;;;1.33;;
30398;SDS011;17195;50.838;7.214;2022-08-01T14:46:55;3.47;;;1.35;;
30398;SDS011;17195;50.838;7.214;2022-08-01T14:49:20;1.30;;;1.10;;
30398;SDS011;17195;50.838;7.214;2022-08-01T14:51:46;1.27;;;1.17;;
30398;SDS011;17195;50.838;7.214;2022-08-01T14:54:11;1.90;;;1.13;;
30398;SDS011;17195;50.838;7.214;2022-08-01T14:56:37;2.72;;;1.10;;
30398;SDS011;17195;50.838;7.214;2022-08-01T14:59:03;1.20;;;1.10;;
30398;SDS011;17195;50.838;7.214;2022-08-01T15:01:28;1.63;;;0.70;;
30398;SDS011;17195;50.838;7.214;2022-08-01T15:03:54;2.95;;;1.23;;
30398;SDS011;17195;50.838;7.214;2022-08-01T15:06:20;3.47;;;1.08;;
30398;SDS011;17195;50.838;7.214;2022-08-01T15:08:46;4.38;;;1.38;;
30398;SDS011;17195;50.838;7.214;2022-08-01T15:11:11;3.65;;;1.00;;
30398;SDS011;17195;50.838;7.214;2022-08-01T15:13:37;2.25;;;0.80;;
30398;SDS011;17195;50.838;7.214;2022-08-01T15:16:03;4.60;;;1.20;;
30398;SDS011;17195;50.838;7.214;2022-08-01T15:18:28;4.72;;;1.30;;
30398;SDS011;17195;50.838;7.214;2022-08-01T15:20:54;2.17;;;1.38;;
30398;SDS011;17195;50.838;7.214;2022-08-01T15:23:20;1.08;;;0.98;;
30398;SDS011;17195;50.838;7.214;2022-08-01T15:25:46;2.83;;;1.00;;
30398;SDS011;17195;50.838;7.214;2022-08-01T15:28:11;1.38;;;0.80;;
30398;SDS011;17195;50.838;7.214;2022-08-01T15:30:37;0.85;;;0.80;;
30398;SDS011;17195;50.838;7.214;2022-08-01T15:33:03;0.82;;;0.70;;
30398;SDS011;17195;50.838;7.214;2022-08-01T15:35:29;1.15;;;0.60;;
30398;SDS011;17195;50.838;7.214;2022-08-01T15:37:55;1.67;;;0.70;;
30398;SDS011;17195;50.838;7.214;2022-08-01T15:40:20;2.10;;;0.80;;